sensor_id;sensor_type;location;lat;lon;timestamp;pressure;altitude;pressure_sealevel;temperature;humidity
7614;BME280;3848;42.016;23.098;2023-10-19T00:02:23;97257.19;;;9.28;100.00
7614;BME280;3848;42.016;23.098;2023-10-19T00:04:52;97246.22;;;9.27;100.00
7614;BME280;3848;42.016;23.098;2023-10-19T00:07:18;97247.06;;;9.28;100.00
7614;BME280;3848;42.016;23.098;2023-10-19T00:09:44;97240.28;;;9.34;100.00
7614;BME280;3848;42.016;23.098;2023-10-19T00:12:13;97241.13;;;9.33;100.00
7614;BME280;3848;42.016;23.098;2023-10-19T00:14:41;97224.25;;;9.23;100.00
7614;BME280;3848;42.016;23.098;2023-10-19T00:17:07;97236.06;;;9.29;100.00
7614;BME280;3848;42.016;23.098;2023-10-19T00:19:36;97219.19;;;9.25;100.00
7614;BME280;3848;42.016;23.098;2023-10-19T00:22:06;97241.13;;;9.36;100.00
7614;BME280;3848;42.016;23.098;2023-10-19T00:24:41;97241.97;;;9.37;100.00
7614;BME280;3848;42.016;23.098;2023-10-19T00:27:07;97231.84;;;9.31;100.00
7614;BME280;3848;42.016;23.098;2023-10-19T00:29:41;97228.44;;;9.35;100.00
7614;BME280;3848;42.016;23.098;2023-10-19T00:32:14;97222.53;;;9.34;100.00
7614;BME280;3848;42.016;23.098;2023-10-19T00:34:43;97222.53;;;9.31;100.00
7614;BME280;3848;42.016;23.098;2023-10-19T00:37:18;97216.63;;;9.31;100.00
7614;BME280;3848;42.016;23.098;2023-10-19T00:39:52;97214.94;;;9.30;100.00
7614;BME280;3848;42.016;23.098;2023-10-19T00:42:21;97205.63;;;9.32;100.00
7614;BME280;3848;42.016;23.098;2023-10-19T00:44:51;97212.41;;;9.37;100.00
7614;BME280;3848;42.016;23.098;2023-10-19T00:47:26;97209.00;;;9.40;100.00
7614;BME280;3848;42.016;23.098;2023-10-19T00:50:04;97203.06;;;9.44;100.00
7614;BME280;3848;42.016;23.098;2023-10-19T00:52:39;97201.38;;;9.49;100.00
7614;BME280;3848;42.016;23.098;2023-10-19T00:55:09;97189.53;;;9.45;100.00
7614;BME280;3848;42.016;23.098;2023-10-19T00:57:39;97181.09;;;9.43;100.00
7614;BME280;3848;42.016;23.098;2023-10-19T01:00:12;97187.84;;;9.45;100.00
7614;BME280;3848;42.016;23.098;2023-10-19T01:02:47;97178.56;;;9.34;100.00
7614;BME280;3848;42.016;23.098;2023-10-19T01:05:17;97196.31;;;9.44;100.00
7614;BME280;3848;42.016;23.098;2023-10-19T01:07:48;97187.03;;;9.42;100.00
7614;BME280;3848;42.016;23.098;2023-10-19T01:10:22;97179.44;;;9.39;100.00
7614;BME280;3848;42.016;23.098;2023-10-19T01:12:53;97193.75;;;9.47;100.00
7614;BME280;3848;42.016;23.098;2023-10-19T01:15:22;97189.53;;;9.48;100.00
7614;BME280;3848;42.016;23.098;2023-10-19T01:17:56;97184.47;;;9.45;100.00
7614;BME280;3848;42.016;23.098;2023-10-19T01:20:25;97192.06;;;9.50;100.00
7614;BME280;3848;42.016;23.098;2023-10-19T01:23:14;97196.28;;;9.49;100.00
7614;BME280;3848;42.016;23.098;2023-10-19T01:25:52;97192.06;;;9.51;100.00
7614;BME280;3848;42.016;23.098;2023-10-19T01:28:27;97149.03;;;9.27;100.00
7614;BME280;3848;42.016;23.098;2023-10-19T01:31:08;97187.00;;;9.50;100.00
7614;BME280;3848;42.016;23.098;2023-10-19T01:33:39;97195.47;;;9.41;100.00
7614;BME280;3848;42.016;23.098;2023-10-19T01:36:07;97189.56;;;9.36;100.00
7614;BME280;3848;42.016;23.098;2023-10-19T01:38:39;97146.53;;;9.04;100.00
7614;BME280;3848;42.016;23.098;2023-10-19T01:41:06;97192.97;;;9.21;100.00
7614;BME280;3848;42.016;23.098;2023-10-19T01:43:39;97183.69;;;9.14;100.00
7614;BME280;3848;42.016;23.098;2023-10-19T01:46:06;97189.59;;;9.14;100.00
7614;BME280;3848;42.016;23.098;2023-10-19T01:48:37;97190.44;;;9.15;100.00
7614;BME280;3848;42.016;23.098;2023-10-19T01:51:06;97189.63;;;9.18;100.00
7614;BME280;3848;42.016;23.098;2023-10-19T01:53:36;97189.63;;;9.18;100.00
7614;BME280;3848;42.016;23.098;2023-10-19T01:56:03;97193.00;;;9.20;100.00
7614;BME280;3848;42.016;23.098;2023-10-19T01:58:32;97193.00;;;9.20;100.00
7614;BME280;3848;42.016;23.098;2023-10-19T02:01:01;97192.97;;;9.26;100.00
7614;BME280;3848;42.016;23.098;2023-10-19T02:03:33;97196.34;;;9.31;100.00
7614;BME280;3848;42.016;23.098;2023-10-19T02:06:01;97198.00;;;9.36;100.00
7614;BME280;3848;42.016;23.098;2023-10-19T02:08:36;97192.94;;;9.36;100.00
7614;BME280;3848;42.016;23.098;2023-10-19T02:11:05;97193.78;;;9.35;100.00
7614;BME280;3848;42.016;23.098;2023-10-19T02:13:44;97196.34;;;9.40;100.00
7614;BME280;3848;42.016;23.098;2023-10-19T02:16:12;97200.56;;;9.42;100.00
7614;BME280;3848;42.016;23.098;2023-10-19T02:18:41;97206.47;;;9.43;100.00
7614;BME280;3848;42.016;23.098;2023-10-19T02:21:07;97200.53;;;9.45;100.00
7614;BME280;3848;42.016;23.098;2023-10-19T02:23:38;97203.06;;;9.50;100.00
7614;BME280;3848;42.016;23.098;2023-10-19T02:26:06;97197.13;;;9.51;100.00
7614;BME280;3848;42.016;23.098;2023-10-19T02:28:33;97194.59;;;9.51;100.00
7614;BME280;3848;42.016;23.098;2023-10-19T02:31:02;97206.44;;;9.58;100.00
7614;BME280;3848;42.016;23.098;2023-10-19T02:33:37;97203.88;;;9.57;100.00
7614;BME280;3848;42.016;23.098;2023-10-19T02:36:05;97209.78;;;9.68;100.00
7614;BME280;3848;42.016;23.098;2023-10-19T02:38:39;97216.50;;;9.72;100.00
7614;BME280;3848;42.016;23.098;2023-10-19T02:41:06;97209.78;;;9.68;100.00
7614;BME280;3848;42.016;23.098;2023-10-19T02:43:35;97213.94;;;9.78;100.00
7614;BME280;3848;42.016;23.098;2023-10-19T02:46:01;97223.25;;;9.84;100.00
7614;BME280;3848;42.016;23.098;2023-10-19T02:48:29;97217.31;;;9.85;100.00
7614;BME280;3848;42.016;23.098;2023-10-19T02:50:56;97222.41;;;9.83;100.00
7614;BME280;3848;42.016;23.098;2023-10-19T02:53:32;97204.69;;;9.68;100.00
7614;BME280;3848;42.016;23.098;2023-10-19T02:55:59;97218.22;;;9.71;100.00
7614;BME280;3848;42.016;23.098;2023-10-19T02:58:40;97224.13;;;9.69;100.00
7614;BME280;3848;42.016;23.098;2023-10-19T03:01:12;97223.31;;;9.65;100.00
7614;BME280;3848;42.016;23.098;2023-10-19T03:03:42;97221.63;;;9.64;100.00
7614;BME280;3848;42.016;23.098;2023-10-19T03:06:09;97222.47;;;9.62;100.00
7614;BME280;3848;42.016;23.098;2023-10-19T03:08:36;97214.88;;;9.59;100.00
7614;BME280;3848;42.016;23.098;2023-10-19T03:11:02;97216.56;;;9.54;100.00
7614;BME280;3848;42.016;23.098;2023-10-19T03:13:30;97199.72;;;9.39;100.00
7614;BME280;3848;42.016;23.098;2023-10-19T03:15:59;97209.81;;;9.50;100.00
7614;BME280;3848;42.016;23.098;2023-10-19T03:18:32;97210.63;;;9.56;100.00
7614;BME280;3848;42.016;23.098;2023-10-19T03:21:00;97216.56;;;9.52;100.00
7614;BME280;3848;42.016;23.098;2023-10-19T03:23:27;97199.72;;;9.42;100.00
7614;BME280;3848;42.016;23.098;2023-10-19T03:25:54;97214.91;;;9.45;100.00
7614;BME280;3848;42.016;23.098;2023-10-19T03:28:45;97171.00;;;9.15;100.00
7614;BME280;3848;42.016;23.098;2023-10-19T03:31:22;97187.91;;;9.24;100.00
7614;BME280;3848;42.016;23.098;2023-10-19T03:33:50;97216.59;;;9.43;100.00
7614;BME280;3848;42.016;23.098;2023-10-19T03:36:21;97212.38;;;9.36;100.00
7614;BME280;3848;42.016;23.098;2023-10-19T03:38:48;97212.38;;;9.33;100.00
7614;BME280;3848;42.016;23.098;2023-10-19T03:41:17;97210.72;;;9.24;100.00
7614;BME280;3848;42.016;23.098;2023-10-19T03:43:47;97210.72;;;9.24;100.00
7614;BME280;3848;42.016;23.098;2023-10-19T03:46:15;97203.97;;;9.26;100.00
7614;BME280;3848;42.016;23.098;2023-10-19T03:48:50;97208.16;;;9.29;100.00
7614;BME280;3848;42.016;23.098;2023-10-19T03:51:17;97156.69;;;8.98;100.00
7614;BME280;3848;42.016;23.098;2023-10-19T03:53:44;97192.97;;;9.21;100.00
7614;BME280;3848;42.016;23.098;2023-10-19T03:56:16;97199.72;;;9.30;100.00
7614;BME280;3848;42.016;23.098;2023-10-19T03:58:44;97192.97;;;9.26;100.00
7614;BME280;3848;42.016;23.098;2023-10-19T04:01:16;97179.44;;;9.27;100.00
7614;BME280;3848;42.016;23.098;2023-10-19T04:03:45;97181.97;;;9.30;100.00
7614;BME280;3848;42.016;23.098;2023-10-19T04:06:13;97181.13;;;9.26;100.00
7614;BME280;3848;42.016;23.098;2023-10-19T04:08:41;97178.63;;;9.17;100.00
7614;BME280;3848;42.016;23.098;2023-10-19T04:11:10;97189.63;;;9.18;100.00
7614;BME280;3848;42.016;23.098;2023-10-19T04:13:48;97192.16;;;9.08;100.00
7614;BME280;3848;42.016;23.098;2023-10-19T04:16:19;97188.78;;;9.02;100.00
7614;BME280;3848;42.016;23.098;2023-10-19T04:18:46;97188.78;;;9.06;100.00
7614;BME280;3848;42.016;23.098;2023-10-19T04:21:15;97186.25;;;9.08;100.00
7614;BME280;3848;42.016;23.098;2023-10-19T04:23:42;97174.41;;;9.04;100.00
7614;BME280;3848;42.016;23.098;2023-10-19T04:26:10;97181.16;;;9.19;100.00
7614;BME280;3848;42.016;23.098;2023-10-19T04:28:44;97169.34;;;9.18;100.00
7614;BME280;3848;42.016;23.098;2023-10-19T04:31:16;97185.34;;;9.32;100.00
7614;BME280;3848;42.016;23.098;2023-10-19T04:33:45;97181.09;;;9.37;100.00
7614;BME280;3848;42.016;23.098;2023-10-19T04:36:17;97182.78;;;9.44;100.00
7614;BME280;3848;42.016;23.098;2023-10-19T04:38:47;97184.47;;;9.48;100.00
7614;BME280;3848;42.016;23.098;2023-10-19T04:41:14;97183.63;;;9.49;100.00
7614;BME280;3848;42.016;23.098;2023-10-19T04:43:40;97171.78;;;9.45;100.00
7614;BME280;3848;42.016;23.098;2023-10-19T04:46:15;97165.91;;;9.41;100.00
7614;BME280;3848;42.016;23.098;2023-10-19T04:48:44;97181.03;;;9.55;100.00
7614;BME280;3848;42.016;23.098;2023-10-19T04:51:11;97182.75;;;9.55;100.00
7614;BME280;3848;42.016;23.098;2023-10-19T04:53:39;97173.44;;;9.55;100.00
7614;BME280;3848;42.016;23.098;2023-10-19T04:56:08;97184.44;;;9.53;100.00
7614;BME280;3848;42.016;23.098;2023-10-19T04:58:35;97170.94;;;9.47;100.00
7614;BME280;3848;42.016;23.098;2023-10-19T05:01:02;97188.66;;;9.60;100.00
7614;BME280;3848;42.016;23.098;2023-10-19T05:03:30;97187.78;;;9.65;100.00
7614;BME280;3848;42.016;23.098;2023-10-19T05:05:57;97174.28;;;9.62;100.00
7614;BME280;3848;42.016;23.098;2023-10-19T05:08:25;97192.81;;;9.77;100.00
7614;BME280;3848;42.016;23.098;2023-10-19T05:10:55;97190.25;;;9.85;100.00
7614;BME280;3848;42.016;23.098;2023-10-19T05:13:25;97189.38;;;9.92;100.00
7614;BME280;3848;42.016;23.098;2023-10-19T05:15:52;97189.34;;;9.97;100.00
7614;BME280;3848;42.016;23.098;2023-10-19T05:18:20;97185.94;;;9.98;100.00
7614;BME280;3848;42.016;23.098;2023-10-19T05:20:47;97193.53;;;10.05;100.00
7614;BME280;3848;42.016;23.098;2023-10-19T05:23:14;97201.94;;;10.15;100.00
7614;BME280;3848;42.016;23.098;2023-10-19T05:25:41;97207.84;;;10.20;100.00
7614;BME280;3848;42.016;23.098;2023-10-19T05:28:10;97193.50;;;10.22;100.00
7614;BME280;3848;42.016;23.098;2023-10-19T05:30:37;97195.13;;;10.29;100.00
7614;BME280;3848;42.016;23.098;2023-10-19T05:33:04;97158.81;;;10.09;100.00
7614;BME280;3848;42.016;23.098;2023-10-19T05:35:31;97206.06;;;10.37;100.00
7614;BME280;3848;42.016;23.098;2023-10-19T05:38:00;97206.91;;;10.39;100.00
7614;BME280;3848;42.016;23.098;2023-10-19T05:40:28;97190.88;;;10.34;100.00
7614;BME280;3848;42.016;23.098;2023-10-19T05:42:56;97197.59;;;10.38;100.00
7614;BME280;3848;42.016;23.098;2023-10-19T05:45:27;97198.50;;;10.33;100.00
7614;BME280;3848;42.016;23.098;2023-10-19T05:47:55;97196.00;;;10.27;100.00
7614;BME280;3848;42.016;23.098;2023-10-19T05:50:22;97205.31;;;10.28;100.00
7614;BME280;3848;42.016;23.098;2023-10-19T05:52:49;97202.81;;;10.22;100.00
7614;BME280;3848;42.016;23.098;2023-10-19T05:55:17;97211.22;;;10.28;100.00
7614;BME280;3848;42.016;23.098;2023-10-19T05:57:46;97212.06;;;10.30;100.00
7614;BME280;3848;42.016;23.098;2023-10-19T06:00:14;97217.97;;;10.32;100.00
7614;BME280;3848;42.016;23.098;2023-10-19T06:02:43;97205.28;;;10.31;100.00
7614;BME280;3848;42.016;23.098;2023-10-19T06:05:12;97208.66;;;10.30;100.00
7614;BME280;3848;42.016;23.098;2023-10-19T06:07:41;97194.31;;;10.18;100.00
7614;BME280;3848;42.016;23.098;2023-10-19T06:10:10;97210.38;;;10.20;100.00
7614;BME280;3848;42.016;23.098;2023-10-19T06:12:41;97221.38;;;10.19;100.00
7614;BME280;3848;42.016;23.098;2023-10-19T06:15:08;97216.34;;;10.22;100.00
7614;BME280;3848;42.016;23.098;2023-10-19T06:17:36;97212.94;;;10.17;100.00
7614;BME280;3848;42.016;23.098;2023-10-19T06:20:06;97225.63;;;10.16;100.00
7614;BME280;3848;42.016;23.098;2023-10-19T06:22:34;97214.69;;;10.06;100.00
7614;BME280;3848;42.016;23.098;2023-10-19T06:25:01;97212.22;;;9.89;100.00
7614;BME280;3848;42.016;23.098;2023-10-19T06:27:30;97220.72;;;9.74;100.00
7614;BME280;3848;42.016;23.098;2023-10-19T06:29:57;97173.50;;;9.44;100.00
7614;BME280;3848;42.016;23.098;2023-10-19T06:32:23;97204.78;;;9.37;100.00
7614;BME280;3848;42.016;23.098;2023-10-19T06:34:52;97199.69;;;9.36;100.00
7614;BME280;3848;42.016;23.098;2023-10-19T06:37:21;97210.69;;;9.41;100.00
7614;BME280;3848;42.016;23.098;2023-10-19T06:39:48;97203.06;;;9.36;100.00
7614;BME280;3848;42.016;23.098;2023-10-19T06:42:17;97198.00;;;9.35;100.00
7614;BME280;3848;42.016;23.098;2023-10-19T06:44:43;97187.06;;;9.19;100.00
7614;BME280;3848;42.016;23.098;2023-10-19T06:47:11;97179.47;;;9.21;100.00
7614;BME280;3848;42.016;23.098;2023-10-19T06:49:39;97176.09;;;9.03;100.00
7614;BME280;3848;42.016;23.098;2023-10-19T06:52:06;97173.53;;;9.23;100.00
7614;BME280;3848;42.016;23.098;2023-10-19T06:54:38;97178.56;;;9.37;100.00
7614;BME280;3848;42.016;23.098;2023-10-19T06:57:05;97199.72;;;9.42;100.00
7614;BME280;3848;42.016;23.098;2023-10-19T06:59:33;97192.91;;;9.50;100.00
7614;BME280;3848;42.016;23.098;2023-10-19T07:02:00;97204.72;;;9.63;100.00
7614;BME280;3848;42.016;23.098;2023-10-19T07:04:28;97201.31;;;9.70;100.00
7614;BME280;3848;42.016;23.098;2023-10-19T07:06:56;97203.78;;;9.84;100.00
7614;BME280;3848;42.016;23.098;2023-10-19T07:09:23;97197.88;;;9.84;100.00
7614;BME280;3848;42.016;23.098;2023-10-19T07:11:51;97198.72;;;9.83;100.00
7614;BME280;3848;42.016;23.098;2023-10-19T07:14:22;97197.78;;;9.99;100.00
7614;BME280;3848;42.016;23.098;2023-10-19T07:16:49;97143.69;;;9.91;100.00
7614;BME280;3848;42.016;23.098;2023-10-19T07:19:17;97177.31;;;10.35;100.00
7614;BME280;3848;42.016;23.098;2023-10-19T07:21:45;97121.41;;;10.38;100.00
7614;BME280;3848;42.016;23.098;2023-10-19T07:24:15;97157.47;;;10.85;100.00
7614;BME280;3848;42.016;23.098;2023-10-19T07:26:44;97148.75;;;11.10;100.00
7614;BME280;3848;42.016;23.098;2023-10-19T07:29:30;97147.56;;;11.40;100.00
7614;BME280;3848;42.016;23.098;2023-10-19T07:31:58;97137.94;;;11.68;100.00
7614;BME280;3848;42.016;23.098;2023-10-19T07:34:25;97132.47;;;11.99;100.00
7614;BME280;3848;42.016;23.098;2023-10-19T07:36:55;97120.59;;;11.98;100.00
7614;BME280;3848;42.016;23.098;2023-10-19T07:39:24;97132.13;;;12.23;100.00
7614;BME280;3848;42.016;23.098;2023-10-19T07:41:54;97139.41;;;12.46;100.00
7614;BME280;3848;42.016;23.098;2023-10-19T07:44:23;97133.44;;;12.50;100.00
7614;BME280;3848;42.016;23.098;2023-10-19T07:46:52;97137.38;;;12.66;100.00
7614;BME280;3848;42.016;23.098;2023-10-19T07:49:19;97128.50;;;12.92;100.00
7614;BME280;3848;42.016;23.098;2023-10-19T07:51:47;97133.88;;;13.24;100.00
7614;BME280;3848;42.016;23.098;2023-10-19T07:54:15;97115.88;;;13.30;100.00
7614;BME280;3848;42.016;23.098;2023-10-19T07:56:42;97121.47;;;13.49;100.00
7614;BME280;3848;42.016;23.098;2023-10-19T07:59:09;97119.53;;;13.62;100.00
7614;BME280;3848;42.016;23.098;2023-10-19T08:01:37;97101.44;;;13.71;100.00
7614;BME280;3848;42.016;23.098;2023-10-19T08:04:05;97120.63;;;13.90;100.00
7614;BME280;3848;42.016;23.098;2023-10-19T08:06:32;97098.28;;;14.00;100.00
7614;BME280;3848;42.016;23.098;2023-10-19T08:08:59;97116.31;;;14.31;100.00
7614;BME280;3848;42.016;23.098;2023-10-19T08:11:26;97116.03;;;14.45;100.00
7614;BME280;3848;42.016;23.098;2023-10-19T08:13:53;97116.28;;;14.70;100.00
7614;BME280;3848;42.016;23.098;2023-10-19T08:16:20;97107.81;;;15.02;100.00
7614;BME280;3848;42.016;23.098;2023-10-19T08:18:48;97115.72;;;15.25;100.00
7614;BME280;3848;42.016;23.098;2023-10-19T08:21:19;97099.34;;;15.31;100.00
7614;BME280;3848;42.016;23.098;2023-10-19T08:23:47;97120.16;;;15.49;100.00
7614;BME280;3848;42.016;23.098;2023-10-19T08:26:14;97117.63;;;15.48;100.00
7614;BME280;3848;42.016;23.098;2023-10-19T08:28:41;97112.44;;;15.51;100.00
7614;BME280;3848;42.016;23.098;2023-10-19T08:31:09;97126.81;;;15.55;100.00
7614;BME280;3848;42.016;23.098;2023-10-19T08:33:36;97126.63;;;15.64;100.00
7614;BME280;3848;42.016;23.098;2023-10-19T08:36:05;97134.50;;;15.55;100.00
7614;BME280;3848;42.016;23.098;2023-10-19T08:38:33;97129.03;;;15.69;100.00
7614;BME280;3848;42.016;23.098;2023-10-19T08:41:00;97137.13;;;15.84;100.00
7614;BME280;3848;42.016;23.098;2023-10-19T08:43:27;97133.25;;;15.99;100.00
7614;BME280;3848;42.016;23.098;2023-10-19T08:45:54;97140.59;;;16.11;100.00
7614;BME280;3848;42.016;23.098;2023-10-19T08:48:22;97140.44;;;16.16;100.00
7614;BME280;3848;42.016;23.098;2023-10-19T08:50:49;97142.09;;;16.19;100.00
7614;BME280;3848;42.016;23.098;2023-10-19T08:53:18;97134.09;;;16.29;100.00
7614;BME280;3848;42.016;23.098;2023-10-19T08:55:48;97144.22;;;16.60;100.00
7614;BME280;3848;42.016;23.098;2023-10-19T08:58:16;97136.78;;;16.79;100.00
7614;BME280;3848;42.016;23.098;2023-10-19T09:00:46;97125.13;;;16.95;100.00
7614;BME280;3848;42.016;23.098;2023-10-19T09:03:19;97108.56;;;17.04;100.00
7614;BME280;3848;42.016;23.098;2023-10-19T09:05:47;97114.34;;;17.35;100.00
7614;BME280;3848;42.016;23.098;2023-10-19T09:08:15;97109.88;;;17.41;100.00
7614;BME280;3848;42.016;23.098;2023-10-19T09:10:43;97112.00;;;17.29;100.00
7614;BME280;3848;42.016;23.098;2023-10-19T09:13:13;97104.84;;;17.37;100.00
7614;BME280;3848;42.016;23.098;2023-10-19T09:15:44;97116.97;;;17.57;100.00
7614;BME280;3848;42.016;23.098;2023-10-19T09:18:14;97116.44;;;17.96;100.00
7614;BME280;3848;42.016;23.098;2023-10-19T09:20:42;97111.06;;;18.68;100.00
7614;BME280;3848;42.016;23.098;2023-10-19T09:23:19;97037.38;;;18.85;100.00
7614;BME280;3848;42.016;23.098;2023-10-19T09:25:47;97083.13;;;19.40;100.00
7614;BME280;3848;42.016;23.098;2023-10-19T09:28:16;97081.03;;;19.09;100.00
7614;BME280;3848;42.016;23.098;2023-10-19T09:30:43;97100.06;;;19.25;100.00
7614;BME280;3848;42.016;23.098;2023-10-19T09:33:11;97091.72;;;19.78;100.00
7614;BME280;3848;42.016;23.098;2023-10-19T09:35:43;97075.47;;;19.57;94.68
7614;BME280;3848;42.016;23.098;2023-10-19T09:38:13;97082.38;;;19.36;96.66
7614;BME280;3848;42.016;23.098;2023-10-19T09:40:40;97073.84;;;19.15;100.00
7614;BME280;3848;42.016;23.098;2023-10-19T09:43:15;97063.88;;;19.08;100.00
7614;BME280;3848;42.016;23.098;2023-10-19T09:45:48;97073.91;;;18.95;100.00
7614;BME280;3848;42.016;23.098;2023-10-19T09:48:18;97074.97;;;18.89;100.00
7614;BME280;3848;42.016;23.098;2023-10-19T09:50:51;97085.03;;;18.96;100.00
7614;BME280;3848;42.016;23.098;2023-10-19T09:53:23;97077.31;;;19.16;100.00
7614;BME280;3848;42.016;23.098;2023-10-19T09:55:54;97073.41;;;19.26;100.00
7614;BME280;3848;42.016;23.098;2023-10-19T09:58:27;97056.44;;;19.41;100.00
7614;BME280;3848;42.016;23.098;2023-10-19T10:00:56;97065.59;;;20.04;97.79
7614;BME280;3848;42.016;23.098;2023-10-19T10:03:43;97067.00;;;20.82;93.55
7614;BME280;3848;42.016;23.098;2023-10-19T10:06:10;97060.63;;;21.22;77.36
7614;BME280;3848;42.016;23.098;2023-10-19T10:08:40;97041.03;;;21.36;72.70
7614;BME280;3848;42.016;23.098;2023-10-19T10:11:17;97054.69;;;22.18;71.87
7614;BME280;3848;42.016;23.098;2023-10-19T10:13:46;97034.69;;;22.66;66.49
7614;BME280;3848;42.016;23.098;2023-10-19T10:16:16;97031.63;;;23.03;65.14
7614;BME280;3848;42.016;23.098;2023-10-19T10:18:46;97016.66;;;23.23;62.61
7614;BME280;3848;42.016;23.098;2023-10-19T10:21:14;97009.84;;;23.77;60.83
7614;BME280;3848;42.016;23.098;2023-10-19T10:23:43;96997.41;;;24.09;57.86
7614;BME280;3848;42.016;23.098;2023-10-19T10:26:11;96988.47;;;24.13;57.84
7614;BME280;3848;42.016;23.098;2023-10-19T10:28:39;97002.03;;;24.18;56.40
7614;BME280;3848;42.016;23.098;2023-10-19T10:31:13;96987.34;;;24.44;54.59
7614;BME280;3848;42.016;23.098;2023-10-19T10:33:42;96981.97;;;24.60;55.07
7614;BME280;3848;42.016;23.098;2023-10-19T10:36:11;96973.97;;;24.23;54.10
7614;BME280;3848;42.016;23.098;2023-10-19T10:38:38;96981.75;;;23.84;55.36
7614;BME280;3848;42.016;23.098;2023-10-19T10:41:06;96987.38;;;24.17;54.28
7614;BME280;3848;42.016;23.098;2023-10-19T10:43:48;96970.75;;;24.85;53.67
7614;BME280;3848;42.016;23.098;2023-10-19T10:46:23;96960.56;;;24.94;52.54
7614;BME280;3848;42.016;23.098;2023-10-19T10:49:08;96938.09;;;24.43;53.40
7614;BME280;3848;42.016;23.098;2023-10-19T10:51:36;96941.84;;;24.89;52.92
7614;BME280;3848;42.016;23.098;2023-10-19T10:54:03;96934.75;;;25.17;51.69
7614;BME280;3848;42.016;23.098;2023-10-19T10:56:31;96947.88;;;24.65;52.91
7614;BME280;3848;42.016;23.098;2023-10-19T10:58:58;96932.63;;;24.20;53.93
7614;BME280;3848;42.016;23.098;2023-10-19T11:01:29;96937.88;;;24.33;55.02
7614;BME280;3848;42.016;23.098;2023-10-19T11:04:08;96916.38;;;24.44;54.02
7614;BME280;3848;42.016;23.098;2023-10-19T11:06:49;96927.47;;;23.93;54.70
7614;BME280;3848;42.016;23.098;2023-10-19T11:09:16;96930.25;;;23.78;55.64
7614;BME280;3848;42.016;23.098;2023-10-19T11:11:45;96913.31;;;23.85;55.73
7614;BME280;3848;42.016;23.098;2023-10-19T11:14:11;96920.59;;;24.19;55.73
7614;BME280;3848;42.016;23.098;2023-10-19T11:16:40;96926.25;;;24.12;54.75
7614;BME280;3848;42.016;23.098;2023-10-19T11:19:08;96928.91;;;23.85;55.43
7614;BME280;3848;42.016;23.098;2023-10-19T11:21:36;96919.09;;;24.15;54.71
7614;BME280;3848;42.016;23.098;2023-10-19T11:24:03;96916.78;;;24.50;54.95
7614;BME280;3848;42.016;23.098;2023-10-19T11:26:30;96915.13;;;24.49;54.87
7614;BME280;3848;42.016;23.098;2023-10-19T11:28:58;96904.00;;;24.47;55.25
7614;BME280;3848;42.016;23.098;2023-10-19T11:31:26;96896.53;;;24.43;55.81
7614;BME280;3848;42.016;23.098;2023-10-19T11:33:57;96888.41;;;24.85;54.07
7614;BME280;3848;42.016;23.098;2023-10-19T11:36:24;96886.22;;;25.05;53.87
7614;BME280;3848;42.016;23.098;2023-10-19T11:38:52;96883.97;;;24.62;53.87
7614;BME280;3848;42.016;23.098;2023-10-19T11:41:19;96858.47;;;24.54;54.01
7614;BME280;3848;42.016;23.098;2023-10-19T11:43:48;96878.41;;;25.05;54.05
7614;BME280;3848;42.016;23.098;2023-10-19T11:46:16;96884.88;;;25.36;54.40
7614;BME280;3848;42.016;23.098;2023-10-19T11:48:44;96867.56;;;25.23;53.89
7614;BME280;3848;42.016;23.098;2023-10-19T11:51:13;96869.03;;;25.15;53.34
7614;BME280;3848;42.016;23.098;2023-10-19T11:53:41;96863.69;;;25.29;52.79
7614;BME280;3848;42.016;23.098;2023-10-19T11:56:10;96869.34;;;25.47;52.31
7614;BME280;3848;42.016;23.098;2023-10-19T11:58:38;96825.34;;;25.20;52.25
7614;BME280;3848;42.016;23.098;2023-10-19T12:01:08;96868.69;;;25.19;52.30
7614;BME280;3848;42.016;23.098;2023-10-19T12:03:37;96864.53;;;25.17;52.74
7614;BME280;3848;42.016;23.098;2023-10-19T12:06:05;96865.81;;;25.35;52.75
7614;BME280;3848;42.016;23.098;2023-10-19T12:08:39;96872.19;;;25.55;51.19
7614;BME280;3848;42.016;23.098;2023-10-19T12:11:12;96874.38;;;25.01;51.77
7614;BME280;3848;42.016;23.098;2023-10-19T12:13:42;96861.47;;;24.86;52.17
7614;BME280;3848;42.016;23.098;2023-10-19T12:16:10;96859.41;;;24.53;53.05
7614;BME280;3848;42.016;23.098;2023-10-19T12:18:37;96858.06;;;24.73;52.87
7614;BME280;3848;42.016;23.098;2023-10-19T12:21:04;96853.94;;;24.58;52.63
7614;BME280;3848;42.016;23.098;2023-10-19T12:23:34;96860.53;;;24.11;53.08
7614;BME280;3848;42.016;23.098;2023-10-19T12:26:02;96873.78;;;23.81;54.19
7614;BME280;3848;42.016;23.098;2023-10-19T12:28:30;96857.59;;;23.90;54.27
7614;BME280;3848;42.016;23.098;2023-10-19T12:30:56;96846.81;;;24.09;53.43
7614;BME280;3848;42.016;23.098;2023-10-19T12:33:23;96846.56;;;23.74;54.64
7614;BME280;3848;42.016;23.098;2023-10-19T12:35:52;96833.56;;;23.47;55.80
7614;BME280;3848;42.016;23.098;2023-10-19T12:38:22;96842.09;;;23.49;55.74
7614;BME280;3848;42.016;23.098;2023-10-19T12:40:50;96845.91;;;23.70;56.33
7614;BME280;3848;42.016;23.098;2023-10-19T12:43:18;96844.13;;;23.58;56.21
7614;BME280;3848;42.016;23.098;2023-10-19T12:45:47;96830.03;;;23.35;57.52
7614;BME280;3848;42.016;23.098;2023-10-19T12:48:19;96840.94;;;23.14;57.63
7614;BME280;3848;42.016;23.098;2023-10-19T12:50:46;96830.09;;;23.07;58.37
7614;BME280;3848;42.016;23.098;2023-10-19T12:53:13;96827.63;;;22.77;58.74
7614;BME280;3848;42.016;23.098;2023-10-19T12:55:40;96814.69;;;22.48;61.50
7614;BME280;3848;42.016;23.098;2023-10-19T12:58:10;96818.31;;;22.02;64.43
7614;BME280;3848;42.016;23.098;2023-10-19T13:00:37;96817.50;;;21.87;67.95
7614;BME280;3848;42.016;23.098;2023-10-19T13:03:09;96804.25;;;21.77;69.42
7614;BME280;3848;42.016;23.098;2023-10-19T13:05:40;96821.72;;;21.58;70.87
7614;BME280;3848;42.016;23.098;2023-10-19T13:08:09;96821.84;;;21.41;73.32
7614;BME280;3848;42.016;23.098;2023-10-19T13:10:39;96807.22;;;21.25;75.40
7614;BME280;3848;42.016;23.098;2023-10-19T13:13:09;96813.44;;;21.21;79.35
7614;BME280;3848;42.016;23.098;2023-10-19T13:15:39;96811.53;;;21.09;83.08
7614;BME280;3848;42.016;23.098;2023-10-19T13:18:08;96804.03;;;20.89;86.97
7614;BME280;3848;42.016;23.098;2023-10-19T13:20:36;96804.03;;;20.73;88.19